Terminal Aerodrome Forecast
Issued by NWS

Current Version | Previous Version | Text Only | Print | Product List | Glossary On
Versions: 1 2 3 4 5 6 7 8 9 10 11 12
000
FTUS45 KREV 232320
TAFRNO
TAF
KRNO 232320Z 2400/2424 VRB04KT P6SM SCT090
     FM240030 29014G24KT P6SM SCT090
     FM240500 VRB03KT P6SM FEW250
     FM241800 27016G28KT P6SM SCT080 BKN150=

USA.gov is the U.S. government's official web portal to all federal, state and local government web resources and services.